KSHV/SHV METAR and TAF weather

Enter ICAO airport designator
Station Type Date Time Source
KSHV METAR 2020/07/05 02:56 UTC NOAA

KSHV 050256Z 13003KT 6SM HZ BKN100 BKN290 28/24 A2987 RMK AO2 SLP111 T02830239 53007 $


Station Type Date Time Source
KSHV Decoded METAR 2020/07/05 02:56 UTC NOAA

SHREVEPORT REGIONAL AIRPORT, LA, United States (KSHV) 32-27N 93-50W 80M
Jul 04, 2020 - 10:56 PM EDT / 2020.07.05 0256 UTC
Wind: from the SE (130 degrees) at 3 MPH (3 KT):0
Visibility: 6 mile(s):0
Sky conditions: mostly cloudy
Weather: haze
Temperature: 82.9 F (28.3 C)
Dew Point: 75.0 F (23.9 C)
Relative Humidity: 77%
Pressure (altimeter): 29.87 in. Hg (1011 hPa)
Pressure tendency: 0.02 inches (0.7 hPa) higher than three hours ago
ob: KSHV 050256Z 13003KT 6SM HZ BKN100 BKN290 28/24 A2987 RMK AO2 SLP111 T02830239 53007
cycle: 3

Station Type Date Time Source
KSHV TAF 2020/07/04 18:22 UTC NOAA

TAF KSHV 041720Z 0418/0518 VRB04KT P6SM BKN150
FM050700 00000KT 5SM -SHRA VCTS BKN080CB
FM051200 14002KT P6SM OVC100
FM051600 21006KT P6SM OVC050

Example: see airport list